createdAt,value
2022-09-17T00:01:23.428Z,11.30
2022-09-17T00:03:53.914Z,11.20
2022-09-17T00:06:24.366Z,11.20
2022-09-17T00:08:52.300Z,11.20
2022-09-17T00:11:24.503Z,11.20
2022-09-17T00:13:53.921Z,11.20
2022-09-17T00:16:33.738Z,11.20
2022-09-17T00:19:02.787Z,11.20
2022-09-17T00:21:32.659Z,11.20
2022-09-17T00:24:03.602Z,11.20
2022-09-17T00:26:33.210Z,11.20
2022-09-17T00:29:02.044Z,11.20
2022-09-17T00:31:31.297Z,11.20
2022-09-17T00:34:00.827Z,11.10
2022-09-17T00:36:29.191Z,11.10
2022-09-17T00:39:00.092Z,11.00
2022-09-17T00:41:30.419Z,11.00
2022-09-17T00:44:00.799Z,11.00
2022-09-17T00:46:33.493Z,10.90
2022-09-17T00:49:08.502Z,10.90
2022-09-17T00:51:41.022Z,10.80
2022-09-17T00:54:12.463Z,10.80
2022-09-17T00:56:43.480Z,10.80
2022-09-17T00:59:11.928Z,10.70
2022-09-17T01:01:39.913Z,10.70
2022-09-17T01:04:07.836Z,10.70
2022-09-17T01:06:41.809Z,10.70
2022-09-17T01:09:30.007Z,10.60
2022-09-17T01:12:24.400Z,10.60
2022-09-17T01:15:07.078Z,10.60
2022-09-17T01:17:47.146Z,10.60
2022-09-17T01:20:58.033Z,10.50
2022-09-17T01:23:53.632Z,10.50
2022-09-17T01:26:51.332Z,10.50
2022-09-17T01:29:36.375Z,10.50
2022-09-17T01:32:10.926Z,10.40
2022-09-17T01:34:45.853Z,10.40
2022-09-17T01:37:16.911Z,10.40
2022-09-17T01:39:50.907Z,10.40
2022-09-17T01:42:25.490Z,10.30
2022-09-17T01:45:00.724Z,10.30
2022-09-17T01:47:35.597Z,10.30
2022-09-17T01:50:08.558Z,10.20
2022-09-17T01:52:39.012Z,10.20
2022-09-17T01:55:10.380Z,10.20
2022-09-17T01:57:42.354Z,10.20
2022-09-17T02:00:13.549Z,10.20
2022-09-17T02:02:46.561Z,10.20
2022-09-17T02:05:19.248Z,10.20
2022-09-17T02:07:51.987Z,10.10
2022-09-17T02:10:21.944Z,10.10
2022-09-17T02:12:54.216Z,10.10
2022-09-17T02:15:26.483Z,10.10
2022-09-17T02:18:00.037Z,10.00
2022-09-17T02:20:36.626Z,10.10
2022-09-17T02:23:12.469Z,10.10
2022-09-17T02:25:45.127Z,10.10
2022-09-17T02:28:18.591Z,10.10
2022-09-17T02:30:46.757Z,10.10
2022-09-17T02:33:16.130Z,10.10
2022-09-17T02:35:46.570Z,10.10
2022-09-17T02:38:14.464Z,10.10
2022-09-17T02:40:49.079Z,10.10
2022-09-17T02:43:25.984Z,10.10
2022-09-17T02:46:05.620Z,10.10
2022-09-17T02:48:53.177Z,10.10
2022-09-17T02:51:34.635Z,10.00
2022-09-17T02:54:15.483Z,10.00
2022-09-17T02:56:51.966Z,10.00
2022-09-17T02:59:24.864Z,10.00
2022-09-17T03:01:58.455Z,10.00
2022-09-17T03:04:29.925Z,10.00
2022-09-17T03:06:59.600Z,9.90
2022-09-17T03:09:27.605Z,9.90
2022-09-17T03:11:55.501Z,9.90
2022-09-17T03:14:23.341Z,10.00
2022-09-17T03:16:51.178Z,9.90
2022-09-17T03:19:19.001Z,9.90
2022-09-17T03:21:48.443Z,9.90
2022-09-17T03:24:16.441Z,9.90
2022-09-17T03:26:44.276Z,10.00
2022-09-17T03:29:12.185Z,10.00
2022-09-17T03:31:40.264Z,10.00
2022-09-17T03:34:08.260Z,10.10
2022-09-17T03:36:36.371Z,10.10
2022-09-17T03:39:05.734Z,10.00
2022-09-17T03:41:33.717Z,10.10
2022-09-17T03:44:01.654Z,10.10
2022-09-17T03:46:29.560Z,10.20
2022-09-17T03:48:57.493Z,10.10
2022-09-17T03:51:25.482Z,10.20
2022-09-17T03:53:53.392Z,10.10
2022-09-17T03:56:22.661Z,10.20
2022-09-17T03:58:50.553Z,10.10
2022-09-17T04:01:18.461Z,10.20
2022-09-17T04:03:46.568Z,10.20
2022-09-17T04:06:14.411Z,10.20
2022-09-17T04:08:43.567Z,10.20
2022-09-17T04:11:11.588Z,10.30
2022-09-17T04:13:40.836Z,10.30
2022-09-17T04:16:08.933Z,10.30
2022-09-17T04:18:37.071Z,10.30
2022-09-17T04:21:05.114Z,10.30
2022-09-17T04:23:32.948Z,10.30
2022-09-17T04:26:00.751Z,10.40
2022-09-17T04:28:28.665Z,10.40
2022-09-17T04:30:58.164Z,10.40
2022-09-17T04:33:26.072Z,10.40
2022-09-17T04:35:54.100Z,10.50
2022-09-17T04:38:22.410Z,10.40
2022-09-17T04:40:51.493Z,10.40
2022-09-17T04:43:19.388Z,10.50
2022-09-17T04:45:47.957Z,10.50
2022-09-17T04:48:17.921Z,10.50
2022-09-17T04:50:45.723Z,10.50
2022-09-17T04:53:13.597Z,10.60
2022-09-17T04:55:41.512Z,10.60
2022-09-17T04:58:09.437Z,10.60
2022-09-17T05:00:37.773Z,10.60
2022-09-17T05:03:05.789Z,10.70
2022-09-17T05:05:35.211Z,10.70
2022-09-17T05:08:03.629Z,10.70
2022-09-17T05:10:31.506Z,10.70
2022-09-17T05:12:59.345Z,10.70
2022-09-17T05:15:27.797Z,10.70
2022-09-17T05:17:55.845Z,10.70
2022-09-17T05:20:23.728Z,10.70
2022-09-17T05:22:53.841Z,10.70
2022-09-17T05:25:24.083Z,10.70
2022-09-17T05:27:53.036Z,10.70
2022-09-17T05:30:21.552Z,10.70
2022-09-17T05:32:49.778Z,10.80
2022-09-17T05:35:17.674Z,10.80
2022-09-17T05:37:45.528Z,10.80
2022-09-17T05:40:15.119Z,10.80
2022-09-17T05:42:43.008Z,10.90
2022-09-17T05:45:11.697Z,10.90
2022-09-17T05:47:39.528Z,10.90
2022-09-17T05:50:07.679Z,10.90
2022-09-17T05:52:35.537Z,10.90
2022-09-17T05:55:03.377Z,10.90
2022-09-17T05:57:32.626Z,11.00
2022-09-17T06:00:00.530Z,11.00
2022-09-17T06:02:28.664Z,11.00
2022-09-17T06:05:00.691Z,11.00
2022-09-17T06:07:28.937Z,11.10
2022-09-17T06:09:56.972Z,11.10
2022-09-17T06:12:24.893Z,11.20
2022-09-17T06:14:54.223Z,11.20
2022-09-17T06:17:22.384Z,11.20
2022-09-17T06:19:50.464Z,11.20
2022-09-17T06:22:21.190Z,11.20
2022-09-17T06:24:49.036Z,11.20
2022-09-17T06:27:17.136Z,11.20
2022-09-17T06:29:45.219Z,11.20
2022-09-17T06:32:16.885Z,11.20
2022-09-17T06:34:44.736Z,11.20
2022-09-17T06:37:12.676Z,11.20
2022-09-17T06:39:40.530Z,11.20
2022-09-17T06:42:08.736Z,11.20
2022-09-17T06:44:36.549Z,11.30
2022-09-17T06:47:08.111Z,11.20
2022-09-17T06:49:37.469Z,11.30
2022-09-17T06:52:05.682Z,11.40
2022-09-17T06:54:33.521Z,11.50
2022-09-17T06:57:01.363Z,11.60
2022-09-17T06:59:29.289Z,11.70
2022-09-17T07:01:57.902Z,11.80
2022-09-17T07:04:25.822Z,11.90
2022-09-17T07:06:55.167Z,12.00
2022-09-17T07:09:23.199Z,12.10
2022-09-17T07:11:51.065Z,12.20
2022-09-17T07:14:21.105Z,12.20
2022-09-17T07:16:48.985Z,12.20
2022-09-17T07:19:16.815Z,12.20
2022-09-17T07:21:44.642Z,12.30
2022-09-17T07:24:13.796Z,12.40
2022-09-17T07:26:41.608Z,12.50
2022-09-17T07:29:09.805Z,12.60
2022-09-17T07:31:37.885Z,12.70
2022-09-17T07:34:05.955Z,12.90
2022-09-17T07:36:34.135Z,13.10
2022-09-17T07:39:02.009Z,13.50
2022-09-17T07:41:32.191Z,13.90
2022-09-17T07:44:02.461Z,14.40
2022-09-17T07:46:30.733Z,14.80
2022-09-17T07:48:58.601Z,15.00
2022-09-17T07:51:28.319Z,15.10
2022-09-17T07:53:57.793Z,15.20
2022-09-17T07:56:27.458Z,15.20
2022-09-17T07:58:57.297Z,14.90
2022-09-17T08:01:27.150Z,15.00
2022-09-17T08:03:55.789Z,15.40
2022-09-17T08:06:25.940Z,15.80
2022-09-17T08:08:53.950Z,16.10
2022-09-17T08:11:44.672Z,16.60
2022-09-17T08:14:16.253Z,16.90
2022-09-17T08:16:45.582Z,17.30
2022-09-17T08:19:13.457Z,17.30
2022-09-17T08:21:41.290Z,17.30
2022-09-17T08:24:09.680Z,17.70
2022-09-17T08:26:38.876Z,18.00
2022-09-17T08:29:07.334Z,18.00
2022-09-17T08:31:36.941Z,18.10
2022-09-17T08:34:09.487Z,18.10
2022-09-17T08:36:37.553Z,18.00
2022-09-17T08:39:05.651Z,17.80
2022-09-17T08:41:43.418Z,17.70
2022-09-17T08:44:19.957Z,17.40
2022-09-17T08:46:51.766Z,17.10
2022-09-17T08:49:28.841Z,17.30
2022-09-17T08:52:10.776Z,17.80
2022-09-17T08:54:46.396Z,18.40
2022-09-17T08:57:26.018Z,18.80
2022-09-17T09:00:00.452Z,19.40
2022-09-17T09:02:43.221Z,19.50
2022-09-17T09:05:15.656Z,19.10
2022-09-17T09:07:47.045Z,19.20
2022-09-17T09:10:20.832Z,19.10
2022-09-17T09:12:49.796Z,18.70
2022-09-17T09:15:30.270Z,18.20
2022-09-17T09:18:06.296Z,17.80
2022-09-17T09:20:44.023Z,17.50
2022-09-17T09:23:16.896Z,17.30
2022-09-17T09:25:54.106Z,17.20
2022-09-17T09:28:41.019Z,17.00
2022-09-17T09:31:32.247Z,17.50
2022-09-17T09:34:17.099Z,18.40
2022-09-17T09:36:45.825Z,19.50
2022-09-17T09:39:18.622Z,19.60
2022-09-17T09:41:50.439Z,19.40
2022-09-17T09:44:18.918Z,19.20
2022-09-17T09:47:07.464Z,19.50
2022-09-17T09:49:58.962Z,19.80
2022-09-17T09:52:43.967Z,19.30
2022-09-17T09:55:35.913Z,18.80
2022-09-17T09:58:13.011Z,18.40
2022-09-17T10:00:43.902Z,17.70
2022-09-17T10:03:16.538Z,17.50
2022-09-17T10:05:57.248Z,17.40
2022-09-17T10:08:25.668Z,17.30
2022-09-17T10:10:59.250Z,17.30
2022-09-17T10:13:29.161Z,17.60
2022-09-17T10:15:57.591Z,17.80
2022-09-17T10:18:26.615Z,17.90
2022-09-17T10:21:01.261Z,18.00
2022-09-17T10:23:31.713Z,18.20
2022-09-17T10:25:59.646Z,18.40
2022-09-17T10:28:40.473Z,18.30
2022-09-17T10:31:10.663Z,18.00
2022-09-17T10:33:52.680Z,17.90
2022-09-17T10:36:40.652Z,17.80
2022-09-17T10:39:32.352Z,17.70
2022-09-17T10:42:01.870Z,17.60
2022-09-17T10:44:31.597Z,17.50
2022-09-17T10:47:08.927Z,17.40
2022-09-17T10:49:43.200Z,17.30
2022-09-17T10:52:20.377Z,17.30
2022-09-17T10:55:17.108Z,17.10
2022-09-17T10:57:58.658Z,16.90
2022-09-17T11:00:30.976Z,16.70
2022-09-17T11:03:42.617Z,16.60
2022-09-17T11:06:46.450Z,16.60
2022-09-17T11:09:26.273Z,16.60
2022-09-17T11:12:12.088Z,16.50
2022-09-17T11:14:50.989Z,16.40
2022-09-17T11:17:50.047Z,16.30
2022-09-17T11:20:30.445Z,16.20
2022-09-17T11:23:08.124Z,16.20
2022-09-17T11:25:59.691Z,16.30
2022-09-17T11:28:42.464Z,16.40
2022-09-17T11:31:24.296Z,16.40
2022-09-17T11:34:12.042Z,16.50
2022-09-17T11:36:47.233Z,16.50
2022-09-17T11:39:22.203Z,16.60
2022-09-17T11:41:53.253Z,16.60
2022-09-17T11:44:26.789Z,16.60
2022-09-17T11:46:59.260Z,16.70
2022-09-17T11:49:33.860Z,16.70
2022-09-17T11:52:07.260Z,16.70
2022-09-17T11:54:40.655Z,16.90
2022-09-17T11:57:14.903Z,17.10
2022-09-17T11:59:48.275Z,17.40
2022-09-17T12:02:24.324Z,17.30
2022-09-17T12:04:59.807Z,17.20
2022-09-17T12:07:35.841Z,17.10
2022-09-17T12:10:21.436Z,17.00
2022-09-17T12:12:58.061Z,17.20
2022-09-17T12:15:28.856Z,17.70
2022-09-17T12:18:31.213Z,18.20
2022-09-17T12:21:02.617Z,18.60
2022-09-17T12:23:39.329Z,19.10
2022-09-17T12:26:18.756Z,19.20
2022-09-17T12:28:57.700Z,19.60
2022-09-17T12:31:36.888Z,19.80
2022-09-17T12:34:21.079Z,19.90
2022-09-17T12:36:54.383Z,19.80
2022-09-17T12:39:52.866Z,19.90
2022-09-17T12:42:35.555Z,20.20
2022-09-17T12:45:17.697Z,20.30
2022-09-17T12:48:11.410Z,20.40
2022-09-17T12:50:51.474Z,20.70
2022-09-17T12:53:29.188Z,20.50
2022-09-17T12:56:06.314Z,20.40
2022-09-17T12:58:58.278Z,20.10
2022-09-17T13:01:33.368Z,19.80
2022-09-17T13:04:12.847Z,19.70
2022-09-17T13:07:17.628Z,19.70
2022-09-17T13:10:04.036Z,19.70
2022-09-17T13:12:38.945Z,19.80
2022-09-17T13:15:35.013Z,19.90
2022-09-17T13:18:26.259Z,20.00
2022-09-17T13:21:08.115Z,20.00
2022-09-17T13:23:43.380Z,20.00
2022-09-17T13:26:13.303Z,20.10
2022-09-17T13:28:46.930Z,20.10
2022-09-17T13:31:21.524Z,20.00
2022-09-17T13:33:52.525Z,20.00
2022-09-17T13:36:53.866Z,19.80
2022-09-17T13:39:42.409Z,19.70
2022-09-17T13:42:27.750Z,19.50
2022-09-17T13:45:10.009Z,19.30
2022-09-17T13:47:49.790Z,19.20
2022-09-17T13:50:27.652Z,18.90
2022-09-17T13:52:58.100Z,18.80
2022-09-17T13:55:35.496Z,18.80
2022-09-17T13:58:08.487Z,18.60
2022-09-17T14:00:55.434Z,18.50
2022-09-17T14:03:53.387Z,18.50
2022-09-17T14:06:53.721Z,18.40
2022-09-17T14:09:54.234Z,18.10
2022-09-17T14:12:54.673Z,17.90
2022-09-17T14:16:01.846Z,17.70
2022-09-17T14:18:38.722Z,17.50
2022-09-17T14:21:14.493Z,17.40
2022-09-17T14:23:47.400Z,17.30
2022-09-17T14:26:21.656Z,17.20
2022-09-17T14:28:56.880Z,17.20
2022-09-17T14:31:37.889Z,17.10
2022-09-17T14:34:06.719Z,17.00
2022-09-17T14:36:38.704Z,16.90
2022-09-17T14:39:13.871Z,16.90
2022-09-17T14:41:43.758Z,16.90
2022-09-17T14:44:17.213Z,16.80
2022-09-17T14:46:53.088Z,16.80
2022-09-17T14:49:23.680Z,16.80
2022-09-17T14:51:52.224Z,16.70
2022-09-17T14:54:26.200Z,16.80
2022-09-17T14:57:00.132Z,16.80
2022-09-17T14:59:49.236Z,16.80
2022-09-17T15:02:30.195Z,16.70
2022-09-17T15:04:58.667Z,16.60
2022-09-17T15:07:27.801Z,16.60
2022-09-17T15:10:08.064Z,16.50
2022-09-17T15:12:36.779Z,16.50
2022-09-17T15:15:06.657Z,16.30
2022-09-17T15:17:36.424Z,16.30
2022-09-17T15:20:08.220Z,16.20
2022-09-17T15:22:40.136Z,16.20
2022-09-17T15:25:16.365Z,16.20
2022-09-17T15:27:47.260Z,16.20
2022-09-17T15:30:17.894Z,16.30
2022-09-17T15:32:51.038Z,16.20
2022-09-17T15:35:22.917Z,16.20
2022-09-17T15:40:42.475Z,16.20
2022-09-17T15:43:19.716Z,16.20
2022-09-17T15:45:47.612Z,16.20
2022-09-17T15:48:37.010Z,16.20
2022-09-17T15:51:07.004Z,16.20
2022-09-17T15:53:36.247Z,16.10
2022-09-17T15:56:08.536Z,16.10
2022-09-17T15:58:54.035Z,16.10
2022-09-17T16:01:54.869Z,16.00
2022-09-17T16:04:28.091Z,15.90
2022-09-17T16:07:19.019Z,15.80
2022-09-17T16:09:50.040Z,15.80
2022-09-17T16:12:21.528Z,15.70
2022-09-17T16:14:52.018Z,15.60
2022-09-17T16:17:25.392Z,15.50
2022-09-17T16:19:53.538Z,15.50
2022-09-17T16:22:21.379Z,15.50
2022-09-17T16:24:49.232Z,15.40
2022-09-17T16:27:21.914Z,15.40
2022-09-17T16:29:52.141Z,15.30
2022-09-17T16:32:21.235Z,15.20
2022-09-17T16:34:49.137Z,15.10
2022-09-17T16:37:17.012Z,15.00
2022-09-17T16:39:45.022Z,14.90
2022-09-17T16:42:12.899Z,14.80
2022-09-17T16:44:42.103Z,14.70
2022-09-17T16:47:10.162Z,14.60
2022-09-17T16:49:38.013Z,14.40
2022-09-17T16:52:05.997Z,14.20
2022-09-17T16:54:33.896Z,13.90
2022-09-17T16:57:02.437Z,13.70
2022-09-17T16:59:30.311Z,13.60
2022-09-17T17:02:00.023Z,13.50
2022-09-17T17:04:27.877Z,13.40
2022-09-17T17:06:55.762Z,13.40
2022-09-17T17:09:23.628Z,13.30
2022-09-17T17:11:51.738Z,13.20
2022-09-17T17:14:19.835Z,13.20
2022-09-17T17:16:47.930Z,13.20
2022-09-17T17:19:17.670Z,13.20
2022-09-17T17:21:47.286Z,13.20
2022-09-17T17:24:15.317Z,13.20
2022-09-17T17:26:43.219Z,13.20
2022-09-17T17:29:11.369Z,13.20
2022-09-17T17:31:39.291Z,13.10
2022-09-17T17:34:07.459Z,13.00
2022-09-17T17:36:36.668Z,12.90
2022-09-17T17:39:04.850Z,12.90
2022-09-17T17:41:32.692Z,12.80
2022-09-17T17:44:00.494Z,12.80
2022-09-17T17:46:28.512Z,12.80
2022-09-17T17:48:56.988Z,12.70
2022-09-17T17:51:25.290Z,12.70
2022-09-17T17:53:54.592Z,12.60
2022-09-17T17:56:23.459Z,12.60
2022-09-17T17:58:56.380Z,12.50
2022-09-17T18:01:26.604Z,12.40
2022-09-17T18:03:58.344Z,12.40
2022-09-17T18:06:26.727Z,12.40
2022-09-17T18:08:55.941Z,12.40
2022-09-17T18:11:24.288Z,12.30
2022-09-17T18:13:55.098Z,12.30
2022-09-17T18:16:24.610Z,12.30
2022-09-17T18:18:52.485Z,12.20
2022-09-17T18:21:21.831Z,12.20
2022-09-17T18:23:51.049Z,12.10
2022-09-17T18:26:22.667Z,12.10
2022-09-17T18:28:51.113Z,12.10
2022-09-17T18:31:23.622Z,12.10
2022-09-17T18:33:55.630Z,12.00
2022-09-17T18:36:23.484Z,12.00
2022-09-17T18:38:54.237Z,12.00
2022-09-17T18:41:23.461Z,12.00
2022-09-17T18:43:51.329Z,12.00
2022-09-17T18:46:19.285Z,12.00
2022-09-17T18:48:47.628Z,12.00
2022-09-17T18:51:15.920Z,12.00
2022-09-17T18:53:46.282Z,11.90
2022-09-17T18:56:19.080Z,11.90
2022-09-17T18:58:50.028Z,11.90
2022-09-17T19:01:19.009Z,11.90
2022-09-17T19:03:47.337Z,11.90
2022-09-17T19:06:16.121Z,12.00
2022-09-17T19:08:44.922Z,12.00
2022-09-17T19:11:13.318Z,11.90
2022-09-17T19:13:42.948Z,11.90
2022-09-17T19:16:13.450Z,11.90
2022-09-17T19:18:41.466Z,11.90
2022-09-17T19:21:12.268Z,11.90
2022-09-17T19:23:42.028Z,11.90
2022-09-17T19:26:12.035Z,11.90
2022-09-17T19:28:39.864Z,11.90
2022-09-17T19:31:08.990Z,11.90
2022-09-17T19:33:38.858Z,11.90
2022-09-17T19:36:10.040Z,11.90
2022-09-17T19:38:38.527Z,11.90
2022-09-17T19:41:08.377Z,11.80
2022-09-17T19:43:36.936Z,11.80
2022-09-17T19:46:06.640Z,11.80
2022-09-17T19:48:35.692Z,11.80
2022-09-17T19:51:08.936Z,11.80
2022-09-17T19:53:38.962Z,11.70
2022-09-17T19:56:08.426Z,11.70
2022-09-17T19:58:36.286Z,11.60
2022-09-17T20:01:04.159Z,11.60
2022-09-17T20:03:32.050Z,11.50
2022-09-17T20:06:00.793Z,11.50
2022-09-17T20:08:30.334Z,11.50
2022-09-17T20:11:04.560Z,11.50
2022-09-17T20:13:32.746Z,11.50
2022-09-17T20:16:04.998Z,11.50
2022-09-17T20:18:33.102Z,11.50
2022-09-17T20:21:00.937Z,11.60
2022-09-17T20:23:32.789Z,11.60
2022-09-17T20:26:00.631Z,11.50
2022-09-17T20:28:28.526Z,11.50
2022-09-17T20:31:01.901Z,11.50
2022-09-17T20:33:29.800Z,11.50
2022-09-17T20:36:01.793Z,11.50
2022-09-17T20:39:09.932Z,11.40
2022-09-17T20:41:20.024Z,11.40
2022-09-17T20:43:50.516Z,11.40
2022-09-17T20:46:19.290Z,11.40
2022-09-17T20:48:47.589Z,11.40
2022-09-17T20:51:17.628Z,11.40
2022-09-17T20:53:46.767Z,11.50
2022-09-17T20:56:16.589Z,11.50
2022-09-17T20:58:50.032Z,11.60
2022-09-17T21:01:20.562Z,11.60
2022-09-17T21:03:50.998Z,11.60
2022-09-17T21:06:20.102Z,11.60
2022-09-17T21:08:48.669Z,11.60
2022-09-17T21:11:17.115Z,11.60
2022-09-17T21:13:46.603Z,11.60
2022-09-17T21:16:15.675Z,11.60
2022-09-17T21:18:44.134Z,11.50
2022-09-17T21:21:13.944Z,11.50
2022-09-17T21:23:42.746Z,11.50
2022-09-17T21:26:14.312Z,11.50
2022-09-17T21:28:43.845Z,11.50
2022-09-17T21:31:15.880Z,11.60
2022-09-17T21:33:44.999Z,11.60
2022-09-17T21:36:14.672Z,11.60
2022-09-17T21:38:43.058Z,11.60
2022-09-17T21:41:12.388Z,11.60
2022-09-17T21:43:40.878Z,11.60
2022-09-17T21:46:10.290Z,11.60
2022-09-17T21:48:45.157Z,11.60
2022-09-17T21:51:14.898Z,11.70
2022-09-17T21:53:42.901Z,11.70
2022-09-17T21:56:13.541Z,11.70
2022-09-17T21:58:42.524Z,11.70
2022-09-17T22:01:12.190Z,11.70
2022-09-17T22:03:42.508Z,11.70
2022-09-17T22:06:14.424Z,11.70
2022-09-17T22:08:42.360Z,11.70
2022-09-17T22:11:12.663Z,11.70
2022-09-17T22:13:41.133Z,11.70
2022-09-17T22:16:10.815Z,11.70
2022-09-17T22:18:40.676Z,11.70
2022-09-17T22:21:16.433Z,11.70
2022-09-17T22:23:44.521Z,11.70
2022-09-17T22:26:12.730Z,11.80
2022-09-17T22:28:40.916Z,11.70
2022-09-17T22:31:10.883Z,11.80
2022-09-17T22:33:42.079Z,11.80
2022-09-17T22:36:12.507Z,11.70
2022-09-17T22:38:42.237Z,11.70
2022-09-17T22:41:14.018Z,11.70
2022-09-17T22:43:42.176Z,11.70
2022-09-17T22:46:13.860Z,11.70
2022-09-17T22:48:43.135Z,11.80
2022-09-17T22:51:11.361Z,11.80
2022-09-17T22:53:40.292Z,11.80
2022-09-17T22:56:10.238Z,11.80
2022-09-17T22:58:38.680Z,11.80
2022-09-17T23:01:08.854Z,11.80
2022-09-17T23:03:36.848Z,11.80
2022-09-17T23:06:08.572Z,11.80
2022-09-17T23:08:37.496Z,11.80
2022-09-17T23:11:06.767Z,11.80
2022-09-17T23:13:34.899Z,11.80
2022-09-17T23:16:03.708Z,11.80
2022-09-17T23:18:32.202Z,11.80
2022-09-17T23:21:01.110Z,11.80
2022-09-17T23:23:30.361Z,11.80
2022-09-17T23:26:04.329Z,11.80
2022-09-17T23:28:32.367Z,11.80
2022-09-17T23:31:00.300Z,11.80
2022-09-17T23:33:28.405Z,11.80
2022-09-17T23:35:58.350Z,11.80
2022-09-17T23:38:26.160Z,11.80
2022-09-17T23:40:55.359Z,11.80
2022-09-17T23:43:23.204Z,11.80
2022-09-17T23:45:57.339Z,11.80
2022-09-17T23:48:25.496Z,11.80
2022-09-17T23:50:53.325Z,11.80
2022-09-17T23:53:21.166Z,11.80
2022-09-17T23:55:49.235Z,11.80
2022-09-17T23:58:18.977Z,11.80
